Time;durP1;ratioP1;P1;durP2;ratioP2;P2;SDS_P1;SDS_P2;PMS_P1;PMS_P2;Temp;Humidity;BMP_temperature;BMP_pressure;BME280_temperature;BME280_humidity;BME280_pressure;Samples;Min_cycle;Max_cycle;Signal;HPM_P1;HPM_P2
2023/06/20 00:00:30;;;;;;;57.37;2.60;;;;;;;;;;5072784;28;20451;-71
2023/06/20 00:02:57;;;;;;;57.87;3.00;;;;;;;;;;5073161;28;20463;-71
2023/06/20 00:05:24;;;;;;;58.20;3.20;;;;;;;;;;5073196;28;20962;-71
2023/06/20 00:07:54;;;;;;;57.40;3.07;;;;;;;;;;5073130;28;20946;-70
2023/06/20 00:10:21;;;;;;;57.60;2.93;;;;;;;;;;5072722;28;20451;-71
2023/06/20 00:12:48;;;;;;;56.73;2.57;;;;;;;;;;5073294;28;20474;-70
2023/06/20 00:15:15;;;;;;;57.60;2.80;;;;;;;;;;5072969;28;20508;-71
2023/06/20 00:17:43;;;;;;;56.70;2.50;;;;;;;;;;5073272;28;20494;-71
2023/06/20 00:20:11;;;;;;;59.17;3.20;;;;;;;;;;5072330;28;20557;-71
2023/06/20 00:22:38;;;;;;;57.50;2.50;;;;;;;;;;5072801;28;20534;-71
2023/06/20 00:25:05;;;;;;;57.30;2.43;;;;;;;;;;5072874;28;20983;-71
2023/06/20 00:27:32;;;;;;;57.00;2.20;;;;;;;;;;5072887;28;20809;-71
2023/06/20 00:29:59;;;;;;;56.57;2.47;;;;;;;;;;5072011;28;20462;-71
2023/06/20 00:32:26;;;;;;;57.40;2.50;;;;;;;;;;5072801;28;20443;-71
2023/06/20 00:34:58;;;;;;;57.47;2.90;;;;;;;;;;5073035;28;20443;-71
2023/06/20 00:37:25;;;;;;;57.80;3.60;;;;;;;;;;5072555;28;20487;-71
2023/06/20 00:39:52;;;;;;;56.87;2.40;;;;;;;;;;5072106;28;20443;-71
2023/06/20 00:42:20;;;;;;;58.07;3.10;;;;;;;;;;5072662;28;20466;-71
2023/06/20 00:44:47;;;;;;;57.40;2.40;;;;;;;;;;5072612;28;20467;-71
2023/06/20 00:47:17;;;;;;;57.10;2.47;;;;;;;;;;5072463;28;20455;-71
2023/06/20 00:49:46;;;;;;;57.60;2.50;;;;;;;;;;5071753;28;20470;-70
2023/06/20 00:52:15;;;;;;;57.97;3.03;;;;;;;;;;5072268;28;20443;-71
2023/06/20 00:54:44;;;;;;;56.97;2.43;;;;;;;;;;5072070;28;20846;-69
2023/06/20 00:57:12;;;;;;;56.90;2.20;;;;;;;;;;5071935;28;21042;-68
2023/06/20 00:59:39;;;;;;;56.87;2.67;;;;;;;;;;5071708;28;20447;-69
2023/06/20 01:02:06;;;;;;;56.73;2.57;;;;;;;;;;5070609;28;20455;-68
2023/06/20 01:04:33;;;;;;;56.97;2.50;;;;;;;;;;5072162;28;20490;-69
2023/06/20 01:07:04;;;;;;;57.70;2.90;;;;;;;;;;5068174;28;20455;-69
2023/06/20 01:09:38;;;;;;;57.23;2.43;;;;;;;;;;5064571;28;20445;-69
2023/06/20 01:12:10;;;;;;;56.80;2.47;;;;;;;;;;5071678;28;20452;-68
2023/06/20 01:14:41;;;;;;;57.60;2.87;;;;;;;;;;5071682;28;20463;-68
2023/06/20 01:17:11;;;;;;;57.93;2.90;;;;;;;;;;5071897;28;20562;-69
2023/06/20 01:19:47;;;;;;;57.30;3.00;;;;;;;;;;5071067;28;20443;-69
2023/06/20 01:22:17;;;;;;;57.23;2.50;;;;;;;;;;5071882;28;20462;-69
2023/06/20 01:24:49;;;;;;;57.40;2.80;;;;;;;;;;5072159;28;20971;-69
2023/06/20 01:27:16;;;;;;;57.57;2.40;;;;;;;;;;5071441;28;20494;-69
2023/06/20 01:29:47;;;;;;;57.60;3.00;;;;;;;;;;5071427;28;20827;-69
2023/06/20 01:32:15;;;;;;;58.57;2.90;;;;;;;;;;5071818;28;20430;-69
2023/06/20 01:34:48;;;;;;;57.20;2.63;;;;;;;;;;5071390;28;20850;-70
2023/06/20 01:37:17;;;;;;;57.47;2.67;;;;;;;;;;5071937;28;20514;-69
2023/06/20 01:39:46;;;;;;;60.43;3.03;;;;;;;;;;5070569;28;20454;-70
2023/06/20 01:42:14;;;;;;;59.50;3.60;;;;;;;;;;5071719;28;20529;-70
2023/06/20 01:44:42;;;;;;;60.03;3.70;;;;;;;;;;5071147;28;20480;-70
2023/06/20 01:47:11;;;;;;;57.63;3.03;;;;;;;;;;5071361;28;20469;-70
2023/06/20 01:49:39;;;;;;;57.57;2.57;;;;;;;;;;5070722;28;20450;-70
2023/06/20 01:52:06;;;;;;;57.40;2.70;;;;;;;;;;5071135;28;20481;-70
2023/06/20 01:54:37;;;;;;;57.50;3.17;;;;;;;;;;5071111;28;20470;-69
2023/06/20 01:57:06;;;;;;;57.97;2.60;;;;;;;;;;5071109;28;20882;-69
2023/06/20 01:59:34;;;;;;;57.90;3.03;;;;;;;;;;5067324;28;20458;-70
2023/06/20 02:02:02;;;;;;;57.27;2.77;;;;;;;;;;5071470;28;20824;-70
2023/06/20 02:04:29;;;;;;;61.40;3.20;;;;;;;;;;5071182;28;20464;-70
2023/06/20 02:06:57;;;;;;;57.33;2.73;;;;;;;;;;5071074;28;20458;-70
2023/06/20 02:09:25;;;;;;;57.87;3.20;;;;;;;;;;5070578;28;20488;-70
2023/06/20 02:11:52;;;;;;;57.63;2.60;;;;;;;;;;5070940;28;20979;-70
2023/06/20 02:14:21;;;;;;;58.00;3.27;;;;;;;;;;5071180;28;20474;-70
2023/06/20 02:16:50;;;;;;;58.07;3.83;;;;;;;;;;5071091;28;20453;-70
2023/06/20 02:19:17;;;;;;;57.50;2.80;;;;;;;;;;5073385;28;20811;-70
2023/06/20 02:21:45;;;;;;;57.60;3.03;;;;;;;;;;5077564;28;20450;-70
2023/06/20 02:24:13;;;;;;;57.40;2.80;;;;;;;;;;5077666;28;20809;-70
2023/06/20 02:26:43;;;;;;;57.77;2.90;;;;;;;;;;5077861;28;20517;-70
2023/06/20 02:29:11;;;;;;;57.30;2.80;;;;;;;;;;5077112;28;20847;-70
2023/06/20 02:31:40;;;;;;;57.27;2.33;;;;;;;;;;5077491;28;20447;-71
2023/06/20 02:34:09;;;;;;;57.33;2.57;;;;;;;;;;5077699;28;20473;-70
2023/06/20 02:36:37;;;;;;;57.60;3.13;;;;;;;;;;5077530;28;20447;-70
2023/06/20 02:39:05;;;;;;;57.13;2.53;;;;;;;;;;5077027;28;20443;-70
2023/06/20 02:41:32;;;;;;;57.53;2.97;;;;;;;;;;5077443;28;20866;-70
2023/06/20 02:43:59;;;;;;;57.70;2.70;;;;;;;;;;5077665;28;20467;-70
2023/06/20 02:46:29;;;;;;;57.17;2.53;;;;;;;;;;5077455;28;20473;-70
2023/06/20 02:49:00;;;;;;;57.50;2.60;;;;;;;;;;5076578;28;20494;-70
2023/06/20 02:51:30;;;;;;;57.13;2.70;;;;;;;;;;5077256;28;20455;-70
2023/06/20 02:53:59;;;;;;;57.37;2.80;;;;;;;;;;5077649;28;20840;-70
2023/06/20 02:56:28;;;;;;;57.03;2.50;;;;;;;;;;5077212;28;20463;-70
2023/06/20 02:58:56;;;;;;;57.30;2.60;;;;;;;;;;5076573;28;20449;-70
2023/06/20 03:01:24;;;;;;;57.70;2.90;;;;;;;;;;5077274;28;20479;-70
2023/06/20 03:03:52;;;;;;;56.77;2.50;;;;;;;;;;5077022;28;20463;-70
2023/06/20 03:06:27;;;;;;;57.27;2.40;;;;;;;;;;5075079;28;20535;-70
2023/06/20 03:08:55;;;;;;;58.90;2.90;;;;;;;;;;5076630;28;20503;-69
2023/06/20 03:11:22;;;;;;;57.30;2.50;;;;;;;;;;5077011;28;20455;-70
2023/06/20 03:13:49;;;;;;;57.57;2.77;;;;;;;;;;5073333;28;20479;-70
2023/06/20 03:16:16;;;;;;;57.60;2.60;;;;;;;;;;5076870;28;20974;-70
2023/06/20 03:18:46;;;;;;;57.50;2.70;;;;;;;;;;5076676;28;20443;-69
2023/06/20 03:21:13;;;;;;;56.97;2.30;;;;;;;;;;5077227;28;20459;-70
2023/06/20 03:23:43;;;;;;;59.10;3.40;;;;;;;;;;5077322;28;20990;-69
2023/06/20 03:26:10;;;;;;;57.47;2.43;;;;;;;;;;5077337;28;20458;-70
2023/06/20 03:28:37;;;;;;;57.17;2.50;;;;;;;;;;5068570;28;20490;-70
2023/06/20 03:31:04;;;;;;;57.80;3.70;;;;;;;;;;5073962;28;20939;-70
2023/06/20 03:33:31;;;;;;;57.07;2.60;;;;;;;;;;5074071;28;20474;-70
2023/06/20 03:36:00;;;;;;;57.13;2.40;;;;;;;;;;5073749;28;20458;-69
2023/06/20 03:38:27;;;;;;;57.50;3.27;;;;;;;;;;5073861;28;20455;-70
2023/06/20 03:40:55;;;;;;;57.87;3.10;;;;;;;;;;5073548;28;20456;-70
2023/06/20 03:43:22;;;;;;;57.37;3.00;;;;;;;;;;5073422;28;20975;-69
2023/06/20 03:45:49;;;;;;;57.70;2.90;;;;;;;;;;5073844;28;20943;-70
2023/06/20 03:48:18;;;;;;;56.73;2.50;;;;;;;;;;5073482;28;20995;-70
2023/06/20 03:50:46;;;;;;;57.50;2.50;;;;;;;;;;5072930;28;20455;-70
2023/06/20 03:53:13;;;;;;;58.93;2.97;;;;;;;;;;5073662;28;20474;-69
2023/06/20 03:55:41;;;;;;;57.30;2.70;;;;;;;;;;5073489;28;20463;-70
2023/06/20 03:58:09;;;;;;;58.07;3.00;;;;;;;;;;5073653;28;20453;-70
2023/06/20 04:00:37;;;;;;;57.20;3.33;;;;;;;;;;5072906;28;20823;-70
2023/06/20 04:03:04;;;;;;;56.93;2.50;;;;;;;;;;5073463;28;20525;-70
2023/06/20 04:05:31;;;;;;;57.17;2.50;;;;;;;;;;5073335;28;20443;-70
2023/06/20 04:08:00;;;;;;;57.90;2.93;;;;;;;;;;5073244;28;20460;-70
2023/06/20 04:10:28;;;;;;;57.30;2.60;;;;;;;;;;5072330;28;20967;-70
2023/06/20 04:12:55;;;;;;;57.50;2.83;;;;;;;;;;5073379;28;20471;-70
2023/06/20 04:15:23;;;;;;;56.90;2.60;;;;;;;;;;5073270;28;20455;-70
2023/06/20 04:17:50;;;;;;;57.27;2.47;;;;;;;;;;5073366;28;20537;-70
2023/06/20 04:20:17;;;;;;;58.30;3.00;;;;;;;;;;5072690;28;20458;-70
2023/06/20 04:22:45;;;;;;;56.67;2.40;;;;;;;;;;5072941;28;20454;-70
2023/06/20 04:25:13;;;;;;;57.70;3.03;;;;;;;;;;5073007;28;20462;-70
2023/06/20 04:27:40;;;;;;;58.27;3.87;;;;;;;;;;5073054;28;20458;-70
2023/06/20 04:30:07;;;;;;;57.27;2.63;;;;;;;;;;5072328;28;20483;-70
2023/06/20 04:32:37;;;;;;;57.17;2.50;;;;;;;;;;5072781;28;20451;-70
2023/06/20 04:35:04;;;;;;;58.47;3.30;;;;;;;;;;5072625;28;20520;-69
2023/06/20 04:37:31;;;;;;;58.17;3.10;;;;;;;;;;5072692;28;20447;-70
2023/06/20 04:39:59;;;;;;;58.80;3.53;;;;;;;;;;5072132;28;20451;-69
2023/06/20 04:42:26;;;;;;;56.93;2.93;;;;;;;;;;5072134;28;20455;-70
2023/06/20 04:44:53;;;;;;;56.73;2.40;;;;;;;;;;5072514;28;20455;-70
2023/06/20 04:47:20;;;;;;;57.17;3.17;;;;;;;;;;5072817;28;21141;-70
2023/06/20 04:49:48;;;;;;;59.53;5.20;;;;;;;;;;5071903;28;20479;-70
2023/06/20 04:52:16;;;;;;;57.40;2.50;;;;;;;;;;5072252;28;20448;-70
2023/06/20 04:54:43;;;;;;;57.20;2.60;;;;;;;;;;5072739;28;20870;-70
2023/06/20 04:57:10;;;;;;;58.53;2.87;;;;;;;;;;5072048;28;20964;-70
2023/06/20 04:59:38;;;;;;;57.07;2.47;;;;;;;;;;5071661;28;20820;-70
2023/06/20 05:02:06;;;;;;;57.67;2.30;;;;;;;;;;5072249;28;20454;-70
2023/06/20 05:04:33;;;;;;;56.70;2.30;;;;;;;;;;5071935;28;20477;-71
2023/06/20 05:07:01;;;;;;;57.03;2.30;;;;;;;;;;5070941;28;20451;-70
2023/06/20 05:09:29;;;;;;;56.90;2.53;;;;;;;;;;5070159;28;20483;-70
2023/06/20 05:11:56;;;;;;;57.27;2.77;;;;;;;;;;5072192;28;20454;-70
2023/06/20 05:14:23;;;;;;;57.00;2.67;;;;;;;;;;5072008;28;20478;-70
2023/06/20 05:16:50;;;;;;;56.90;2.37;;;;;;;;;;5071795;28;20451;-70
2023/06/20 05:19:17;;;;;;;57.03;2.30;;;;;;;;;;5070856;28;20448;-70
2023/06/20 05:21:44;;;;;;;57.10;2.70;;;;;;;;;;5071880;28;20837;-71
2023/06/20 05:24:13;;;;;;;57.00;2.30;;;;;;;;;;5071829;28;20470;-69
2023/06/20 05:26:41;;;;;;;56.77;2.90;;;;;;;;;;5071910;28;20454;-70
2023/06/20 05:29:08;;;;;;;56.83;2.30;;;;;;;;;;5070894;28;20994;-70
2023/06/20 05:31:35;;;;;;;57.00;2.47;;;;;;;;;;5071808;28;20453;-71
2023/06/20 05:34:03;;;;;;;57.07;2.50;;;;;;;;;;5071573;28;20471;-71
2023/06/20 05:36:31;;;;;;;57.20;2.83;;;;;;;;;;5071398;28;20458;-71
2023/06/20 05:38:58;;;;;;;56.90;2.30;;;;;;;;;;5070937;28;20454;-71
2023/06/20 05:41:27;;;;;;;56.60;2.20;;;;;;;;;;5071461;28;20959;-71
2023/06/20 05:43:54;;;;;;;56.47;2.40;;;;;;;;;;5071372;28;20475;-71
2023/06/20 05:46:21;;;;;;;56.47;2.00;;;;;;;;;;5071195;28;20448;-71
2023/06/20 05:48:49;;;;;;;57.10;2.87;;;;;;;;;;5070482;28;20475;-71
2023/06/20 05:51:16;;;;;;;56.57;2.60;;;;;;;;;;5071381;28;20447;-71
2023/06/20 05:53:43;;;;;;;56.87;2.40;;;;;;;;;;5070433;28;20475;-71
2023/06/20 05:56:10;;;;;;;56.40;2.20;;;;;;;;;;5071196;28;20637;-72
2023/06/20 05:58:39;;;;;;;57.83;2.30;;;;;;;;;;5070209;28;20443;-71
2023/06/20 06:01:06;;;;;;;56.90;2.53;;;;;;;;;;5071494;28;20459;-72
2023/06/20 06:03:34;;;;;;;56.63;2.40;;;;;;;;;;5071217;28;20472;-71
2023/06/20 06:06:03;;;;;;;56.73;2.13;;;;;;;;;;5071180;28;20447;-71
2023/06/20 06:08:30;;;;;;;56.60;2.20;;;;;;;;;;5071036;28;20513;-71
2023/06/20 06:10:57;;;;;;;57.20;2.37;;;;;;;;;;5071127;28;20459;-71
2023/06/20 06:13:24;;;;;;;56.77;2.40;;;;;;;;;;5070829;28;20467;-71
2023/06/20 06:15:53;;;;;;;56.60;2.30;;;;;;;;;;5070980;28;20933;-71
2023/06/20 06:18:20;;;;;;;57.37;3.03;;;;;;;;;;5071116;28;20454;-71
2023/06/20 06:20:47;;;;;;;56.47;2.20;;;;;;;;;;5070750;28;20443;-71
2023/06/20 06:23:14;;;;;;;59.20;2.67;;;;;;;;;;5070875;28;20475;-71
2023/06/20 06:25:44;;;;;;;56.90;2.10;;;;;;;;;;5070773;28;20447;-72
2023/06/20 06:28:11;;;;;;;57.30;3.03;;;;;;;;;;5071212;28;20489;-72
2023/06/20 06:30:38;;;;;;;56.57;2.37;;;;;;;;;;5070095;28;21011;-72
2023/06/20 06:33:08;;;;;;;56.73;2.13;;;;;;;;;;5071014;28;20467;-72
2023/06/20 06:35:35;;;;;;;56.53;2.30;;;;;;;;;;5071032;28;20443;-72
2023/06/20 06:38:02;;;;;;;57.00;2.20;;;;;;;;;;5070784;28;20447;-71
2023/06/20 06:40:29;;;;;;;56.27;2.00;;;;;;;;;;5069990;28;20959;-71
2023/06/20 06:42:57;;;;;;;57.33;2.30;;;;;;;;;;5070956;28;20835;-71
2023/06/20 06:45:24;;;;;;;56.37;2.00;;;;;;;;;;5070909;28;20459;-71
2023/06/20 06:47:51;;;;;;;56.73;2.40;;;;;;;;;;5070835;28;20489;-72
2023/06/20 06:50:20;;;;;;;56.70;2.50;;;;;;;;;;5069997;28;20497;-71
2023/06/20 06:52:47;;;;;;;56.67;2.13;;;;;;;;;;5070492;28;20478;-72
2023/06/20 06:55:14;;;;;;;57.20;2.77;;;;;;;;;;5070160;28;20463;-70
2023/06/20 06:57:41;;;;;;;56.83;2.23;;;;;;;;;;5070574;28;20428;-69
2023/06/20 07:00:12;;;;;;;56.87;2.17;;;;;;;;;;5069895;28;20452;-69
2023/06/20 07:02:39;;;;;;;57.27;2.10;;;;;;;;;;5070331;28;20456;-69
2023/06/20 07:05:07;;;;;;;57.43;2.23;;;;;;;;;;5070975;28;20452;-69
2023/06/20 07:07:35;;;;;;;56.60;2.30;;;;;;;;;;5065455;28;20937;-71
2023/06/20 07:10:02;;;;;;;56.67;1.90;;;;;;;;;;5072604;28;20486;-71
2023/06/20 07:12:30;;;;;;;57.60;2.70;;;;;;;;;;5073599;28;20452;-71
2023/06/20 07:14:57;;;;;;;57.47;2.80;;;;;;;;;;5073965;28;20462;-71
2023/06/20 07:17:24;;;;;;;57.27;2.27;;;;;;;;;;5065498;28;21013;-71
2023/06/20 07:19:51;;;;;;;57.47;2.30;;;;;;;;;;5073151;28;20498;-69
2023/06/20 07:22:18;;;;;;;56.80;2.00;;;;;;;;;;5074273;28;20477;-69
2023/06/20 07:24:47;;;;;;;59.60;3.47;;;;;;;;;;5074077;28;20471;-69
2023/06/20 07:27:14;;;;;;;56.47;1.90;;;;;;;;;;5073853;28;20454;-69
2023/06/20 07:29:42;;;;;;;56.90;2.07;;;;;;;;;;5072678;28;20485;-69
2023/06/20 07:32:09;;;;;;;57.10;2.70;;;;;;;;;;5073208;28;20471;-69
2023/06/20 07:34:36;;;;;;;56.50;2.20;;;;;;;;;;5073742;28;20463;-69
2023/06/20 07:37:03;;;;;;;56.37;2.00;;;;;;;;;;5073933;28;20455;-69
2023/06/20 07:39:30;;;;;;;57.10;2.33;;;;;;;;;;5073033;28;20439;-69
2023/06/20 07:41:59;;;;;;;57.17;2.30;;;;;;;;;;5073492;28;20459;-69
2023/06/20 07:44:26;;;;;;;58.33;3.77;;;;;;;;;;5073766;28;20485;-69
2023/06/20 07:46:53;;;;;;;60.37;3.63;;;;;;;;;;5073671;28;20463;-69
2023/06/20 07:49:20;;;;;;;57.10;2.57;;;;;;;;;;5072552;28;20486;-69
2023/06/20 07:51:47;;;;;;;56.47;2.60;;;;;;;;;;5073422;28;20444;-69
2023/06/20 07:54:15;;;;;;;57.20;2.67;;;;;;;;;;5073251;28;20475;-72
2023/06/20 07:56:42;;;;;;;59.07;2.40;;;;;;;;;;5073280;28;20531;-72
2023/06/20 07:59:10;;;;;;;56.90;2.43;;;;;;;;;;5072588;28;20455;-72
2023/06/20 08:01:38;;;;;;;56.70;1.70;;;;;;;;;;5073459;28;20448;-72
2023/06/20 08:04:05;;;;;;;56.63;1.93;;;;;;;;;;5073140;28;20463;-72
2023/06/20 08:06:32;;;;;;;56.07;1.90;;;;;;;;;;5073115;28;20447;-72
2023/06/20 08:08:59;;;;;;;56.80;2.57;;;;;;;;;;5072654;28;20940;-72
2023/06/20 08:11:26;;;;;;;56.80;2.40;;;;;;;;;;5073113;28;20939;-72
2023/06/20 08:13:53;;;;;;;56.57;2.10;;;;;;;;;;5073209;28;20486;-72
2023/06/20 08:16:22;;;;;;;57.20;2.20;;;;;;;;;;5072540;28;20451;-72
2023/06/20 08:18:49;;;;;;;56.67;2.17;;;;;;;;;;5072253;28;20839;-72
2023/06/20 08:21:16;;;;;;;56.47;2.10;;;;;;;;;;5073242;28;20447;-72
2023/06/20 08:23:44;;;;;;;56.67;2.33;;;;;;;;;;5072927;28;20498;-72
2023/06/20 08:26:11;;;;;;;56.40;2.00;;;;;;;;;;5073068;28;20459;-72
2023/06/20 08:28:38;;;;;;;56.20;1.90;;;;;;;;;;5072204;28;20446;-72
2023/06/20 08:31:05;;;;;;;56.53;1.97;;;;;;;;;;5072958;28;20483;-72
2023/06/20 08:33:33;;;;;;;61.57;2.70;;;;;;;;;;5072860;28;20463;-72
2023/06/20 08:36:01;;;;;;;57.77;2.77;;;;;;;;;;5072783;28;20824;-72
2023/06/20 08:38:28;;;;;;;56.67;2.50;;;;;;;;;;5072668;28;20830;-72
2023/06/20 08:40:56;;;;;;;56.90;2.30;;;;;;;;;;5072172;28;20443;-72
2023/06/20 08:43:23;;;;;;;56.70;1.93;;;;;;;;;;5072295;28;21006;-73
2023/06/20 08:45:55;;;;;;;57.30;2.00;;;;;;;;;;5067447;28;20467;-73
2023/06/20 08:48:22;;;;;;;57.00;2.50;;;;;;;;;;5052898;28;20484;-73
2023/06/20 08:50:51;;;;;;;56.43;2.00;;;;;;;;;;5071138;28;20483;-71
2023/06/20 08:53:19;;;;;;;57.00;2.83;;;;;;;;;;5071522;28;20468;-72
2023/06/20 08:55:46;;;;;;;58.70;2.20;;;;;;;;;;5072424;28;20455;-72
2023/06/20 08:58:13;;;;;;;57.17;2.40;;;;;;;;;;5072269;28;20787;-72
2023/06/20 09:00:40;;;;;;;56.67;2.20;;;;;;;;;;5070997;28;20446;-72
2023/06/20 09:03:07;;;;;;;57.00;2.43;;;;;;;;;;5071702;28;20478;-72
2023/06/20 09:05:41;;;;;;;56.50;2.10;;;;;;;;;;5071669;28;20455;-72
2023/06/20 09:08:12;;;;;;;57.70;2.43;;;;;;;;;;5069393;28;20456;-72
2023/06/20 09:10:39;;;;;;;57.00;2.30;;;;;;;;;;5070995;28;20487;-72
2023/06/20 09:13:08;;;;;;;57.53;2.53;;;;;;;;;;5071415;28;20532;-72
2023/06/20 09:15:36;;;;;;;56.50;2.40;;;;;;;;;;5071337;28;20448;-73
2023/06/20 09:18:03;;;;;;;56.30;2.10;;;;;;;;;;5072033;28;20866;-73
2023/06/20 09:20:31;;;;;;;59.20;2.77;;;;;;;;;;5070882;28;20451;-72
2023/06/20 09:22:59;;;;;;;57.00;2.30;;;;;;;;;;5071241;28;20478;-72
2023/06/20 09:25:28;;;;;;;56.57;1.87;;;;;;;;;;5071670;28;20451;-71
2023/06/20 09:27:56;;;;;;;57.20;2.43;;;;;;;;;;5071474;28;20447;-72
2023/06/20 09:30:23;;;;;;;56.90;2.03;;;;;;;;;;5070274;28;20484;-73
2023/06/20 09:32:50;;;;;;;56.37;2.10;;;;;;;;;;5071357;28;20516;-69
2023/06/20 09:35:18;;;;;;;56.50;2.07;;;;;;;;;;5071091;28;20458;-72
2023/06/20 09:37:46;;;;;;;57.07;2.30;;;;;;;;;;5071582;28;20450;-71
2023/06/20 09:40:14;;;;;;;56.53;2.27;;;;;;;;;;5070746;28;20538;-72
2023/06/20 09:42:43;;;;;;;56.70;2.17;;;;;;;;;;5071429;28;20443;-69
2023/06/20 09:45:11;;;;;;;56.90;2.60;;;;;;;;;;5071394;28;20443;-70
2023/06/20 09:47:39;;;;;;;56.67;2.47;;;;;;;;;;5071355;28;20454;-71
2023/06/20 09:50:07;;;;;;;56.33;2.00;;;;;;;;;;5070491;28;20482;-70
2023/06/20 09:52:35;;;;;;;56.80;2.43;;;;;;;;;;5071104;28;20478;-70
2023/06/20 09:55:03;;;;;;;56.33;2.13;;;;;;;;;;5070429;28;20457;-70
2023/06/20 09:57:34;;;;;;;56.60;2.20;;;;;;;;;;5071026;28;20435;-70
2023/06/20 10:00:06;;;;;;;56.47;1.77;;;;;;;;;;5070357;28;20440;-70
2023/06/20 10:02:34;;;;;;;56.87;2.90;;;;;;;;;;5071294;28;20439;-70
2023/06/20 10:05:02;;;;;;;56.33;2.20;;;;;;;;;;5070857;28;20944;-69
2023/06/20 10:07:29;;;;;;;56.60;2.27;;;;;;;;;;5071230;28;20455;-70
2023/06/20 10:09:56;;;;;;;56.60;2.10;;;;;;;;;;5070257;28;20458;-69
2023/06/20 10:12:24;;;;;;;57.90;2.30;;;;;;;;;;5071329;28;20458;-69
2023/06/20 10:14:51;;;;;;;57.00;2.50;;;;;;;;;;5070862;28;20822;-69
2023/06/20 10:17:30;;;;;;;56.77;2.40;;;;;;;;;;5070972;28;20962;-71
2023/06/20 10:19:58;;;;;;;57.80;1.90;;;;;;;;;;5070581;28;20993;-71
2023/06/20 10:22:35;;;;;;;56.37;1.77;;;;;;;;;;5071172;28;20680;-71
2023/06/20 10:25:11;;;;;;;56.23;1.90;;;;;;;;;;5071080;28;20825;-70
2023/06/20 10:27:38;;;;;;;55.87;2.20;;;;;;;;;;5070732;28;20949;-70
2023/06/20 10:30:06;;;;;;;56.40;2.07;;;;;;;;;;5070317;28;20482;-71
2023/06/20 10:32:35;;;;;;;56.03;2.10;;;;;;;;;;5071359;28;20498;-71
2023/06/20 10:35:07;;;;;;;56.00;2.03;;;;;;;;;;5070869;28;20447;-70
2023/06/20 10:37:39;;;;;;;56.13;2.30;;;;;;;;;;5071146;28;20444;-71
2023/06/20 10:40:09;;;;;;;55.60;1.93;;;;;;;;;;5071006;28;20455;-71
2023/06/20 10:42:40;;;;;;;55.70;2.00;;;;;;;;;;5074774;28;20876;-71
2023/06/20 10:45:20;;;;;;;55.60;2.03;;;;;;;;;;5074822;28;20451;-71
2023/06/20 10:47:49;;;;;;;55.40;2.00;;;;;;;;;;5074855;28;20442;-71
2023/06/20 10:50:16;;;;;;;55.60;2.20;;;;;;;;;;5074169;28;20490;-71
2023/06/20 10:52:44;;;;;;;55.30;1.90;;;;;;;;;;5074544;28;20948;-71
2023/06/20 10:55:14;;;;;;;55.53;2.13;;;;;;;;;;5074401;28;20974;-71
2023/06/20 10:57:44;;;;;;;55.40;2.27;;;;;;;;;;5074757;28;20424;-71
2023/06/20 11:00:14;;;;;;;55.40;2.30;;;;;;;;;;5074001;28;20481;-71
2023/06/20 11:02:41;;;;;;;55.20;1.80;;;;;;;;;;5074519;28;20927;-70
2023/06/20 11:05:10;;;;;;;55.23;1.77;;;;;;;;;;5074694;28;20451;-71
2023/06/20 11:07:51;;;;;;;55.40;1.80;;;;;;;;;;5068988;28;20542;-70
2023/06/20 11:10:20;;;;;;;55.33;2.10;;;;;;;;;;5068549;28;20448;-71
2023/06/20 11:12:47;;;;;;;55.23;2.00;;;;;;;;;;5074135;28;20520;-70
2023/06/20 11:15:22;;;;;;;55.83;2.47;;;;;;;;;;5073577;28;20928;-71
2023/06/20 11:17:49;;;;;;;55.40;2.17;;;;;;;;;;5054059;28;20451;-70
2023/06/20 11:20:18;;;;;;;55.20;1.80;;;;;;;;;;5053762;28;20444;-71
2023/06/20 11:22:46;;;;;;;55.47;2.13;;;;;;;;;;5054232;28;20455;-70
2023/06/20 11:25:21;;;;;;;55.23;2.00;;;;;;;;;;5070530;28;20525;-71
2023/06/20 11:27:48;;;;;;;56.17;3.13;;;;;;;;;;5066459;28;20442;-71
2023/06/20 11:30:16;;;;;;;56.27;3.03;;;;;;;;;;5073108;28;20454;-71
2023/06/20 11:32:56;;;;;;;57.10;2.23;;;;;;;;;;5073943;28;20474;-71
2023/06/20 11:35:25;;;;;;;54.83;1.80;;;;;;;;;;5074134;28;20430;-71
2023/06/20 11:37:52;;;;;;;54.97;2.13;;;;;;;;;;5073886;28;20448;-71
2023/06/20 11:40:19;;;;;;;55.10;2.10;;;;;;;;;;5073132;28;20439;-71
2023/06/20 11:42:46;;;;;;;54.93;2.10;;;;;;;;;;5073829;28;20458;-71
2023/06/20 11:45:14;;;;;;;55.27;2.00;;;;;;;;;;5073639;28;20951;-71
2023/06/20 11:47:41;;;;;;;54.67;1.57;;;;;;;;;;5073858;28;20451;-71
2023/06/20 11:50:22;;;;;;;55.70;2.63;;;;;;;;;;5073002;28;20447;-70
2023/06/20 11:52:57;;;;;;;54.90;2.20;;;;;;;;;;5072275;28;20463;-71
2023/06/20 11:55:39;;;;;;;54.43;2.10;;;;;;;;;;5073540;28;20462;-70
2023/06/20 11:58:09;;;;;;;55.40;2.17;;;;;;;;;;5073271;28;20456;-71
2023/06/20 12:00:36;;;;;;;55.17;2.57;;;;;;;;;;5072595;28;20475;-71
2023/06/20 12:03:10;;;;;;;55.00;2.00;;;;;;;;;;5073520;28;20471;-70
2023/06/20 12:05:38;;;;;;;55.20;2.03;;;;;;;;;;5073231;28;20932;-71
2023/06/20 12:08:06;;;;;;;55.40;3.10;;;;;;;;;;5073680;28;20455;-71
2023/06/20 12:10:34;;;;;;;55.10;1.90;;;;;;;;;;5072659;28;20459;-71
2023/06/20 12:13:04;;;;;;;54.77;1.93;;;;;;;;;;5073345;28;20476;-70
2023/06/20 12:15:31;;;;;;;54.97;2.00;;;;;;;;;;5073123;28;20483;-71
2023/06/20 12:17:58;;;;;;;55.30;2.57;;;;;;;;;;5066938;28;20452;-71
2023/06/20 12:20:25;;;;;;;54.50;1.87;;;;;;;;;;5069403;28;20477;-71
2023/06/20 12:22:53;;;;;;;55.10;2.67;;;;;;;;;;5071419;28;20474;-70
2023/06/20 12:25:21;;;;;;;55.10;2.00;;;;;;;;;;5072366;28;20447;-71
2023/06/20 12:27:48;;;;;;;57.00;3.63;;;;;;;;;;5072176;28;20455;-71
2023/06/20 12:30:15;;;;;;;54.67;1.90;;;;;;;;;;5071382;28;20452;-71
2023/06/20 12:32:42;;;;;;;54.90;2.07;;;;;;;;;;5072235;28;20444;-70
2023/06/20 12:35:10;;;;;;;54.90;1.80;;;;;;;;;;5072370;28;20450;-70
2023/06/20 12:37:39;;;;;;;55.43;2.30;;;;;;;;;;5072768;28;20443;-70
2023/06/20 12:40:06;;;;;;;55.07;2.40;;;;;;;;;;5071892;28;20455;-71
2023/06/20 12:42:36;;;;;;;55.37;2.53;;;;;;;;;;5072336;28;20479;-71
2023/06/20 12:45:03;;;;;;;54.87;2.27;;;;;;;;;;5072435;28;20491;-71
2023/06/20 12:47:30;;;;;;;55.33;2.00;;;;;;;;;;5072377;28;20448;-71
2023/06/20 12:50:01;;;;;;;55.50;2.60;;;;;;;;;;5071981;28;20455;-72
2023/06/20 12:52:28;;;;;;;55.07;2.17;;;;;;;;;;5072110;28;20813;-72
2023/06/20 12:54:57;;;;;;;54.57;1.93;;;;;;;;;;5072328;28;20478;-72
2023/06/20 12:57:25;;;;;;;54.07;1.90;;;;;;;;;;5072425;28;20432;-72
2023/06/20 12:59:54;;;;;;;55.20;2.67;;;;;;;;;;5071813;28;20558;-71
2023/06/20 13:02:22;;;;;;;54.67;2.07;;;;;;;;;;5072433;28;20475;-72
2023/06/20 13:04:51;;;;;;;55.30;2.50;;;;;;;;;;5071862;28;20478;-72
2023/06/20 13:07:20;;;;;;;55.00;2.10;;;;;;;;;;5072191;28;20482;-72
2023/06/20 13:09:47;;;;;;;55.00;2.33;;;;;;;;;;5071402;28;20468;-72
2023/06/20 13:12:15;;;;;;;54.70;1.97;;;;;;;;;;5071963;28;20450;-72
2023/06/20 13:14:42;;;;;;;54.80;1.87;;;;;;;;;;5071986;28;20978;-71
2023/06/20 13:17:11;;;;;;;55.57;2.03;;;;;;;;;;5072058;28;20531;-71
2023/06/20 13:19:38;;;;;;;57.80;3.20;;;;;;;;;;5071573;28;20454;-72
2023/06/20 13:22:05;;;;;;;55.00;2.33;;;;;;;;;;5072102;28;20502;-72
2023/06/20 13:24:32;;;;;;;55.73;3.20;;;;;;;;;;5071722;28;20463;-71
2023/06/20 13:27:00;;;;;;;56.97;3.63;;;;;;;;;;5067295;28;20470;-72
2023/06/20 13:29:27;;;;;;;54.77;2.03;;;;;;;;;;5070928;28;20443;-72
2023/06/20 13:31:54;;;;;;;55.57;2.30;;;;;;;;;;5071338;28;20455;-72
2023/06/20 13:34:23;;;;;;;54.97;2.00;;;;;;;;;;5070040;28;20972;-72
2023/06/20 13:36:50;;;;;;;55.30;2.00;;;;;;;;;;5071385;28;20455;-73
2023/06/20 13:39:17;;;;;;;55.23;2.33;;;;;;;;;;5070910;28;20454;-72
2023/06/20 13:41:44;;;;;;;55.10;2.63;;;;;;;;;;5071709;28;20566;-73
2023/06/20 13:44:13;;;;;;;55.00;1.90;;;;;;;;;;5071523;28;20468;-73
2023/06/20 13:49:45;;;;;;;56.30;2.97;;;;;;;;;;5067518;28;20398;-72
2023/06/20 13:52:12;;;;;;;55.27;2.20;;;;;;;;;;5071607;28;20451;-72
2023/06/20 13:54:39;;;;;;;55.33;2.20;;;;;;;;;;5071393;28;20478;-73
2023/06/20 13:57:07;;;;;;;56.20;3.13;;;;;;;;;;5071090;28;20466;-72
2023/06/20 14:05:42;;;;;;;56.70;2.43;;;;;;;;;;5067809;28;20383;-72
2023/06/20 14:08:09;;;;;;;58.43;2.47;;;;;;;;;;5071246;28;20454;-72
2023/06/20 14:10:36;;;;;;;55.47;2.00;;;;;;;;;;5070773;28;20446;-72
2023/06/20 14:13:04;;;;;;;56.00;2.57;;;;;;;;;;5071017;28;20467;-72
2023/06/20 14:15:31;;;;;;;56.33;4.03;;;;;;;;;;5070319;28;20501;-72
2023/06/20 14:17:58;;;;;;;56.90;2.73;;;;;;;;;;5071160;28;20456;-72
2023/06/20 14:20:25;;;;;;;56.97;2.10;;;;;;;;;;5070247;28;20455;-72
2023/06/20 14:22:54;;;;;;;55.77;2.20;;;;;;;;;;5071075;28;20495;-72
2023/06/20 14:25:21;;;;;;;56.83;3.37;;;;;;;;;;5071201;28;20451;-72
2023/06/20 14:27:48;;;;;;;54.97;2.10;;;;;;;;;;5070769;28;20987;-72
2023/06/20 14:30:15;;;;;;;54.80;1.90;;;;;;;;;;5070435;28;20451;-72
2023/06/20 14:32:42;;;;;;;55.37;2.20;;;;;;;;;;5070988;28;20573;-72
2023/06/20 14:35:09;;;;;;;55.17;2.40;;;;;;;;;;5070803;28;21019;-72
2023/06/20 14:37:37;;;;;;;55.43;2.20;;;;;;;;;;5070920;28;20447;-72
2023/06/20 14:40:06;;;;;;;55.10;2.33;;;;;;;;;;5069994;28;20454;-72
2023/06/20 14:42:33;;;;;;;55.97;2.33;;;;;;;;;;5070885;28;20574;-72
2023/06/20 14:45:00;;;;;;;55.97;2.60;;;;;;;;;;5071224;28;20822;-72